Time;durP1;ratioP1;P1;durP2;ratioP2;P2;SDS_P1;SDS_P2;PMS_P1;PMS_P2;Temp;Humidity;BMP_temperature;BMP_pressure;BME280_temperature;BME280_humidity;BME280_pressure;Samples;Min_cycle;Max_cycle;Signal;HPM_P1;HPM_P2
2022/10/13 00:00:21;;;;;;;17.30;10.07;;;10.20;99.90;;;;;;5067451;28;20052;-66
2022/10/13 00:02:56;;;;;;;21.60;11.38;;;10.20;99.90;;;;;;5068271;28;20872;-68
2022/10/13 00:05:22;;;;;;;18.48;10.45;;;10.20;99.90;;;;;;5068270;28;20043;-67
2022/10/13 00:07:47;;;;;;;16.98;10.90;;;10.20;99.90;;;;;;5064884;28;20051;-64
2022/10/13 00:10:13;;;;;;;22.45;10.63;;;10.20;99.90;;;;;;5068242;28;20371;-65
2022/10/13 00:12:39;;;;;;;16.85;10.13;;;10.20;99.90;;;;;;5066272;28;20042;-66
2022/10/13 00:15:06;;;;;;;19.88;10.95;;;10.20;99.90;;;;;;5053604;28;20055;-66
2022/10/13 00:17:32;;;;;;;20.60;11.05;;;10.20;99.90;;;;;;5069917;28;20111;-66
2022/10/13 00:19:58;;;;;;;17.13;11.15;;;10.20;99.90;;;;;;5068524;28;20547;-65
2022/10/13 00:22:26;;;;;;;17.75;10.52;;;10.20;99.90;;;;;;5085878;28;20078;-67
2022/10/13 00:24:52;;;;;;;16.75;10.82;;;10.20;99.90;;;;;;5072578;28;20206;-66
2022/10/13 00:27:18;;;;;;;19.90;11.63;;;10.20;99.90;;;;;;5069767;28;20047;-67
2022/10/13 00:29:44;;;;;;;16.55;10.68;;;10.20;99.90;;;;;;5073273;28;20048;-68
2022/10/13 00:32:10;;;;;;;19.45;10.77;;;10.20;99.90;;;;;;5072301;28;20036;-66
2022/10/13 00:34:36;;;;;;;22.77;11.07;;;10.20;99.90;;;;;;5074480;28;20064;-67
2022/10/13 00:37:03;;;;;;;20.58;11.18;;;10.10;99.90;;;;;;5069624;28;20043;-67
2022/10/13 00:39:29;;;;;;;22.73;10.93;;;10.20;99.90;;;;;;5075913;28;20051;-65
2022/10/13 00:41:57;;;;;;;19.05;11.45;;;10.10;99.90;;;;;;5070380;28;20056;-67
2022/10/13 00:44:57;;;;;;;23.73;11.98;;;10.20;99.90;;;;;;5073178;28;20430;-66
2022/10/13 00:47:24;;;;;;;17.50;11.25;;;10.10;99.90;;;;;;5066710;28;20040;-66
2022/10/13 00:49:51;;;;;;;22.10;11.52;;;10.10;99.90;;;;;;5087192;28;20044;-65
2022/10/13 00:52:19;;;;;;;20.17;11.77;;;10.10;99.90;;;;;;5071862;28;20090;-66
2022/10/13 00:54:46;;;;;;;18.88;10.93;;;10.10;99.90;;;;;;5068137;28;20089;-66
2022/10/13 00:57:12;;;;;;;21.65;11.85;;;10.00;99.90;;;;;;5052026;28;20051;-65
2022/10/13 00:59:38;;;;;;;18.10;11.25;;;10.10;99.90;;;;;;5075571;28;20043;-65
2022/10/13 01:02:04;;;;;;;17.80;11.68;;;10.00;99.90;;;;;;5067566;28;20044;-67
2022/10/13 01:04:38;;;;;;;20.85;11.82;;;10.00;99.90;;;;;;5071716;28;20042;-65
2022/10/13 01:07:05;;;;;;;22.08;11.70;;;10.10;99.90;;;;;;5053228;28;20467;-66
2022/10/13 01:09:36;;;;;;;19.13;10.95;;;10.10;99.90;;;;;;5072597;28;20090;-67
2022/10/13 01:12:30;;;;;;;17.38;11.18;;;10.10;99.90;;;;;;5070767;28;20076;-65
2022/10/13 01:15:23;;;;;;;24.80;12.43;;;10.10;99.90;;;;;;5074975;28;20123;-66
2022/10/13 01:18:33;;;;;;;18.73;11.65;;;10.10;99.90;;;;;;5052670;28;20079;-67
2022/10/13 01:20:58;;;;;;;19.95;11.23;;;10.00;99.90;;;;;;4971383;28;20402;-66
2022/10/13 01:23:55;;;;;;;18.70;12.23;;;10.00;99.90;;;;;;4968979;28;20046;-66
2022/10/13 01:26:42;;;;;;;20.30;11.02;;;10.00;99.90;;;;;;4957155;28;20077;-67
2022/10/13 01:29:11;;;;;;;19.65;10.77;;;10.00;99.90;;;;;;4968431;28;20513;-66
2022/10/13 01:32:06;;;;;;;18.40;11.95;;;10.00;99.90;;;;;;4974362;28;20457;-65
2022/10/13 01:34:43;;;;;;;20.00;11.30;;;10.00;99.90;;;;;;4967112;28;20045;-65
2022/10/13 01:37:23;;;;;;;18.30;11.15;;;10.00;99.90;;;;;;4973425;28;20047;-65
2022/10/13 01:40:05;;;;;;;19.95;11.35;;;10.00;99.90;;;;;;4987487;28;20061;-66
2022/10/13 01:42:48;;;;;;;19.52;10.77;;;10.00;99.90;;;;;;4992665;28;20069;-66
2022/10/13 01:45:18;;;;;;;17.75;11.60;;;10.00;99.90;;;;;;4990626;28;20136;-66
2022/10/13 01:47:45;;;;;;;17.95;11.18;;;10.00;99.90;;;;;;5006821;28;20046;-65
2022/10/13 01:50:14;;;;;;;18.65;11.82;;;10.00;99.90;;;;;;4984707;28;20459;-66
2022/10/13 01:52:41;;;;;;;16.67;11.02;;;10.00;99.90;;;;;;4993030;28;20077;-65
2022/10/13 01:55:10;;;;;;;17.08;11.38;;;10.00;99.90;;;;;;4991054;28;20054;-65
2022/10/13 01:57:41;;;;;;;19.40;11.68;;;10.00;99.90;;;;;;5089148;28;20612;-66
2022/10/13 02:00:11;;;;;;;18.77;10.73;;;10.00;99.90;;;;;;5091339;28;20056;-67
2022/10/13 02:02:50;;;;;;;21.80;12.63;;;10.00;99.90;;;;;;5085913;28;20044;-67
2022/10/13 02:05:32;;;;;;;21.60;11.55;;;10.00;99.90;;;;;;5090593;28;20047;-66
2022/10/13 02:08:07;;;;;;;21.10;11.43;;;10.00;99.90;;;;;;5090109;28;20043;-66
2022/10/13 02:11:09;;;;;;;18.33;10.77;;;10.00;99.90;;;;;;5082441;28;20043;-67
2022/10/13 02:13:37;;;;;;;19.83;11.43;;;10.00;99.90;;;;;;5082978;28;20051;-67
2022/10/13 02:16:02;;;;;;;19.48;11.23;;;10.00;99.90;;;;;;5088118;28;20043;-67
2022/10/13 02:18:33;;;;;;;20.33;11.27;;;10.00;99.90;;;;;;5088069;28;20048;-67
2022/10/13 02:21:00;;;;;;;18.00;11.75;;;10.00;99.90;;;;;;5086715;28;20074;-66
2022/10/13 02:23:27;;;;;;;20.88;11.18;;;10.00;99.90;;;;;;5089316;28;20078;-66
2022/10/13 02:25:54;;;;;;;18.05;10.95;;;10.00;99.90;;;;;;5091901;28;20055;-64
2022/10/13 02:28:20;;;;;;;17.30;11.95;;;10.10;99.90;;;;;;5090027;28;20051;-66
2022/10/13 02:30:46;;;;;;;21.50;11.90;;;10.10;99.90;;;;;;5089660;28;20115;-65
2022/10/13 02:33:13;;;;;;;18.58;11.57;;;10.10;99.90;;;;;;5072506;28;20127;-66
2022/10/13 02:35:39;;;;;;;16.83;10.50;;;10.10;99.90;;;;;;5090263;28;20047;-66
2022/10/13 02:38:05;;;;;;;19.33;11.57;;;10.10;99.90;;;;;;5086710;28;20047;-66
2022/10/13 02:40:30;;;;;;;21.85;11.70;;;10.10;99.90;;;;;;5052015;28;20095;-67
2022/10/13 02:42:56;;;;;;;18.30;11.73;;;10.10;99.90;;;;;;5053637;28;20498;-66
2022/10/13 02:45:22;;;;;;;19.08;11.65;;;10.10;99.90;;;;;;5050749;28;20045;-67
2022/10/13 02:47:48;;;;;;;19.08;11.70;;;10.10;99.90;;;;;;5033668;28;20052;-66
2022/10/13 02:50:13;;;;;;;17.38;10.85;;;10.20;99.90;;;;;;5071921;28;20162;-66
2022/10/13 02:52:39;;;;;;;17.77;10.88;;;10.20;99.90;;;;;;5037088;28;20028;-67
2022/10/13 02:55:05;;;;;;;18.58;11.43;;;10.20;99.90;;;;;;5052863;28;20048;-66
2022/10/13 02:57:31;;;;;;;20.65;12.30;;;10.20;99.90;;;;;;5028875;28;20101;-65
2022/10/13 02:59:57;;;;;;;17.42;11.18;;;10.20;99.90;;;;;;5059972;28;20067;-68
2022/10/13 03:02:22;;;;;;;19.88;12.50;;;10.20;99.90;;;;;;5049510;28;20050;-67
2022/10/13 03:04:48;;;;;;;14.43;10.70;;;10.20;99.90;;;;;;5050851;28;20041;-67
2022/10/13 03:07:14;;;;;;;17.88;12.50;;;10.20;99.90;;;;;;5057290;28;20032;-65
2022/10/13 03:09:40;;;;;;;20.27;11.07;;;10.20;99.90;;;;;;5064568;28;20037;-67
2022/10/13 03:12:06;;;;;;;20.55;11.73;;;10.20;99.90;;;;;;5050475;28;20431;-65
2022/10/13 03:14:31;;;;;;;20.83;12.32;;;10.30;99.90;;;;;;5050219;28;20495;-65
2022/10/13 03:16:57;;;;;;;20.00;12.70;;;10.30;99.90;;;;;;5052219;28;20372;-67
2022/10/13 03:19:23;;;;;;;20.23;12.88;;;10.30;99.90;;;;;;5048131;28;20040;-64
2022/10/13 03:21:49;;;;;;;18.98;12.27;;;10.30;99.90;;;;;;5050472;28;20055;-65
2022/10/13 03:24:14;;;;;;;22.13;12.30;;;10.30;99.90;;;;;;5048897;28;20402;-66
2022/10/13 03:26:40;;;;;;;19.50;12.73;;;10.30;99.90;;;;;;5058019;28;20068;-65
2022/10/13 03:29:06;;;;;;;18.85;12.15;;;10.30;99.90;;;;;;5036966;28;20040;-65
2022/10/13 03:31:31;;;;;;;23.15;12.43;;;10.30;99.90;;;;;;5047222;28;20055;-66
2022/10/13 03:33:57;;;;;;;20.02;13.50;;;10.30;99.90;;;;;;5053708;28;20380;-67
2022/10/13 03:36:22;;;;;;;20.23;12.55;;;10.30;99.90;;;;;;5049480;28;20066;-67
2022/10/13 03:38:48;;;;;;;22.98;13.43;;;10.30;99.90;;;;;;5074028;28;20087;-66
2022/10/13 03:41:16;;;;;;;20.42;13.35;;;10.30;99.90;;;;;;5069306;28;20040;-65
2022/10/13 03:43:43;;;;;;;22.45;13.55;;;10.30;99.90;;;;;;5054688;28;20046;-66
2022/10/13 03:46:11;;;;;;;20.73;13.23;;;10.30;99.90;;;;;;5066117;28;20042;-66
2022/10/13 03:48:37;;;;;;;18.50;13.65;;;10.30;99.90;;;;;;5067936;28;20517;-66
2022/10/13 03:51:08;;;;;;;20.20;14.07;;;10.20;99.90;;;;;;5064870;28;20036;-67
2022/10/13 03:53:34;;;;;;;19.50;13.20;;;10.20;99.90;;;;;;5062875;28;20048;-67
2022/10/13 03:56:00;;;;;;;25.27;14.55;;;10.20;99.90;;;;;;5064898;28;20500;-67
2022/10/13 03:58:29;;;;;;;21.48;14.40;;;10.20;99.90;;;;;;5050564;28;20048;-67
2022/10/13 04:00:55;;;;;;;18.33;13.45;;;10.30;99.90;;;;;;5067066;28;20071;-66
2022/10/13 04:03:21;;;;;;;25.00;14.00;;;10.30;99.90;;;;;;5066829;28;20051;-67
2022/10/13 04:05:52;;;;;;;25.02;14.15;;;10.30;99.90;;;;;;5070762;28;20040;-65
2022/10/13 04:08:18;;;;;;;24.50;14.93;;;10.30;99.90;;;;;;5068575;28;20435;-65
2022/10/13 04:10:59;;;;;;;22.40;15.27;;;10.20;99.90;;;;;;5071693;28;20035;-68
2022/10/13 04:13:27;;;;;;;25.30;15.43;;;10.20;99.90;;;;;;5043973;28;20063;-66
2022/10/13 04:15:53;;;;;;;22.98;15.07;;;10.20;99.90;;;;;;5070677;28;20433;-64
2022/10/13 04:18:18;;;;;;;24.45;15.02;;;10.20;99.90;;;;;;5067839;28;20049;-67
2022/10/13 04:20:44;;;;;;;22.75;13.90;;;10.20;99.90;;;;;;5070230;28;20073;-65
2022/10/13 04:23:10;;;;;;;26.90;15.82;;;10.20;99.90;;;;;;5063257;28;20059;-66
2022/10/13 04:25:37;;;;;;;25.13;15.00;;;10.30;99.90;;;;;;5063084;28;20036;-66
2022/10/13 04:28:05;;;;;;;26.27;15.13;;;10.30;99.90;;;;;;5051906;28;20036;-65
2022/10/13 04:30:32;;;;;;;24.02;15.40;;;10.30;99.90;;;;;;5068400;28;20483;-66
2022/10/13 04:32:58;;;;;;;21.73;14.50;;;10.30;99.90;;;;;;5062092;28;20040;-67
2022/10/13 04:35:24;;;;;;;26.02;15.63;;;10.30;99.90;;;;;;5063891;28;20497;-67
2022/10/13 04:37:49;;;;;;;24.98;14.40;;;10.30;99.90;;;;;;5070029;28;20043;-65
2022/10/13 04:40:15;;;;;;;22.35;14.27;;;10.30;99.90;;;;;;5088222;28;20052;-67
2022/10/13 04:42:41;;;;;;;22.10;13.98;;;10.30;99.90;;;;;;5064310;28;20036;-66
2022/10/13 04:45:07;;;;;;;20.77;13.90;;;10.30;99.90;;;;;;5069797;28;20036;-65
2022/10/13 04:47:34;;;;;;;23.13;14.00;;;10.40;99.90;;;;;;5057509;28;20044;-67
2022/10/13 04:49:59;;;;;;;25.90;15.15;;;10.30;99.90;;;;;;5068532;28;20075;-67
2022/10/13 04:52:25;;;;;;;18.15;13.50;;;10.40;99.90;;;;;;5081641;28;20040;-67
2022/10/13 04:54:51;;;;;;;22.42;13.95;;;10.40;99.90;;;;;;5068759;28;20040;-68
2022/10/13 04:57:16;;;;;;;22.17;14.25;;;10.40;99.90;;;;;;5064123;28;20036;-66
2022/10/13 04:59:42;;;;;;;24.77;15.23;;;10.40;99.90;;;;;;5073654;28;20046;-67
2022/10/13 05:02:09;;;;;;;27.33;14.82;;;10.40;99.90;;;;;;5069503;28;20052;-67
2022/10/13 05:04:35;;;;;;;22.52;13.77;;;10.30;99.90;;;;;;5067075;28;20046;-64
2022/10/13 05:07:00;;;;;;;21.73;14.13;;;10.40;99.90;;;;;;5070689;28;20482;-65
2022/10/13 05:09:26;;;;;;;20.73;13.80;;;10.40;99.90;;;;;;5091291;28;20032;-67
2022/10/13 05:11:53;;;;;;;22.00;13.98;;;10.40;99.90;;;;;;5068995;28;20062;-66
2022/10/13 05:14:20;;;;;;;25.98;14.80;;;10.40;99.90;;;;;;5064811;28;20075;-66
2022/10/13 05:16:46;;;;;;;21.58;14.73;;;10.40;99.90;;;;;;5068397;28;20402;-67
2022/10/13 05:19:13;;;;;;;19.00;13.07;;;10.40;99.90;;;;;;5074857;28;20044;-65
2022/10/13 05:21:38;;;;;;;21.08;13.60;;;10.40;99.90;;;;;;5065118;28;20048;-65
2022/10/13 05:24:05;;;;;;;22.50;13.88;;;10.40;99.90;;;;;;5068494;28;20044;-66
2022/10/13 05:26:34;;;;;;;20.88;13.80;;;10.40;99.90;;;;;;5071864;28;20083;-67
2022/10/13 05:29:01;;;;;;;20.60;14.40;;;10.40;99.90;;;;;;5065459;28;20058;-65
2022/10/13 05:31:28;;;;;;;18.80;13.70;;;10.40;99.90;;;;;;5066691;28;20040;-67
2022/10/13 05:33:54;;;;;;;21.98;13.75;;;10.40;99.90;;;;;;5072492;28;20086;-65
2022/10/13 05:36:26;;;;;;;23.10;14.73;;;10.50;99.90;;;;;;5070119;28;20396;-66
2022/10/13 05:38:54;;;;;;;21.33;15.07;;;10.40;99.90;;;;;;5072498;28;20083;-65
2022/10/13 05:41:20;;;;;;;20.58;14.15;;;10.40;99.90;;;;;;5088164;28;20060;-65
2022/10/13 05:43:46;;;;;;;20.58;14.57;;;10.40;99.90;;;;;;5075208;28;20493;-65
2022/10/13 05:46:11;;;;;;;21.58;13.73;;;10.40;99.90;;;;;;5074584;28;20118;-65
2022/10/13 05:48:37;;;;;;;20.30;14.55;;;10.40;99.90;;;;;;5072632;28;20044;-65
2022/10/13 05:51:09;;;;;;;20.88;14.35;;;10.40;99.90;;;;;;5072183;28;20266;-66
2022/10/13 05:53:39;;;;;;;19.17;14.15;;;10.40;99.90;;;;;;5073796;28;20368;-65
2022/10/13 05:56:09;;;;;;;19.38;13.27;;;10.40;99.90;;;;;;5073146;28;20047;-65
2022/10/13 05:58:40;;;;;;;20.92;13.63;;;10.50;99.90;;;;;;5055248;28;20043;-67
2022/10/13 06:01:09;;;;;;;23.23;14.65;;;10.50;99.90;;;;;;5070476;28;20092;-65
2022/10/13 06:03:36;;;;;;;22.75;14.57;;;10.50;99.90;;;;;;5050106;28;20083;-67
2022/10/13 06:06:02;;;;;;;21.75;13.60;;;10.50;99.90;;;;;;5071428;28;20524;-66
2022/10/13 06:08:28;;;;;;;24.20;14.50;;;10.50;99.90;;;;;;5092297;28;20170;-66
2022/10/13 06:10:54;;;;;;;20.25;13.63;;;10.50;99.90;;;;;;5072905;28;20094;-65
2022/10/13 06:13:20;;;;;;;24.67;14.93;;;10.50;99.90;;;;;;5073224;28;20040;-66
2022/10/13 06:15:45;;;;;;;21.52;14.82;;;10.50;99.90;;;;;;5056927;28;20059;-65
2022/10/13 06:18:11;;;;;;;23.15;13.55;;;10.50;99.90;;;;;;5070795;28;20499;-67
2022/10/13 06:20:36;;;;;;;21.55;14.32;;;10.50;99.90;;;;;;5051863;28;20047;-66
2022/10/13 06:23:02;;;;;;;19.55;13.90;;;10.50;99.90;;;;;;5073013;28;20040;-65
2022/10/13 06:25:28;;;;;;;24.17;14.50;;;10.50;99.90;;;;;;5073288;28;20040;-66
2022/10/13 06:27:56;;;;;;;18.25;13.52;;;10.60;99.90;;;;;;5056732;28;20467;-67
2022/10/13 06:30:22;;;;;;;19.35;14.15;;;10.60;99.90;;;;;;5073424;28;20040;-66
2022/10/13 06:32:47;;;;;;;20.88;14.75;;;10.60;99.90;;;;;;5073707;28;20040;-67
2022/10/13 06:35:13;;;;;;;21.63;14.15;;;10.60;99.90;;;;;;5071177;28;20043;-67
2022/10/13 06:37:39;;;;;;;22.65;14.15;;;10.60;99.90;;;;;;5070694;28;20505;-66
2022/10/13 06:40:05;;;;;;;19.17;13.38;;;10.70;99.90;;;;;;5058728;28;20135;-66
2022/10/13 06:42:32;;;;;;;21.00;14.32;;;10.70;99.90;;;;;;5073560;28;20056;-66
2022/10/13 06:44:58;;;;;;;26.23;15.18;;;10.70;99.90;;;;;;5071431;28;20508;-66
2022/10/13 06:47:24;;;;;;;25.15;15.60;;;10.70;99.90;;;;;;5073229;28;20031;-67
2022/10/13 06:49:50;;;;;;;21.52;14.05;;;10.80;99.90;;;;;;5069428;28;20107;-65
2022/10/13 06:52:15;;;;;;;23.48;14.77;;;10.80;99.90;;;;;;5069359;28;20032;-67
2022/10/13 06:54:41;;;;;;;23.52;14.77;;;10.80;99.90;;;;;;5069839;28;20410;-65
2022/10/13 06:57:06;;;;;;;23.73;14.70;;;10.80;99.90;;;;;;5073593;28;20111;-66
2022/10/13 06:59:32;;;;;;;24.33;14.50;;;10.80;99.90;;;;;;5073338;28;20110;-66
2022/10/13 07:01:58;;;;;;;19.33;13.70;;;10.90;99.90;;;;;;5073299;28;20044;-66
2022/10/13 07:04:24;;;;;;;22.80;14.52;;;10.90;99.90;;;;;;5073484;28;20505;-66
2022/10/13 07:06:50;;;;;;;19.88;13.88;;;10.90;99.90;;;;;;5073327;28;20428;-66
2022/10/13 07:09:16;;;;;;;25.85;14.93;;;10.90;99.90;;;;;;5073602;28;20032;-65
2022/10/13 07:11:46;;;;;;;21.00;13.93;;;10.90;99.90;;;;;;5073595;28;20403;-66
2022/10/13 07:14:12;;;;;;;22.90;14.77;;;11.00;99.90;;;;;;5072985;28;20123;-66
2022/10/13 07:16:39;;;;;;;23.35;15.43;;;11.00;99.90;;;;;;5073169;28;20138;-66
2022/10/13 07:19:04;;;;;;;25.73;15.30;;;11.00;99.90;;;;;;5073316;28;20092;-65
2022/10/13 07:21:30;;;;;;;21.80;15.15;;;11.00;99.90;;;;;;5073480;28;20119;-65
2022/10/13 07:23:56;;;;;;;22.50;14.80;;;11.00;99.90;;;;;;5073119;28;20046;-65
2022/10/13 07:26:21;;;;;;;23.73;15.35;;;11.10;99.90;;;;;;5072955;28;20076;-65
2022/10/13 07:28:47;;;;;;;22.50;15.55;;;11.10;99.90;;;;;;5091402;28;20044;-66
2022/10/13 07:31:17;;;;;;;24.48;15.30;;;11.10;99.90;;;;;;5072854;28;20043;-66
2022/10/13 07:33:46;;;;;;;24.15;14.77;;;11.20;99.90;;;;;;5073269;28;20031;-66
2022/10/13 07:36:12;;;;;;;19.58;14.38;;;11.20;99.90;;;;;;5073163;28;20810;-66
2022/10/13 07:38:39;;;;;;;19.98;13.98;;;11.30;99.90;;;;;;5055705;28;20512;-66
2022/10/13 07:41:06;;;;;;;23.58;14.82;;;11.30;99.90;;;;;;5072499;28;20120;-67
2022/10/13 07:43:32;;;;;;;23.38;14.30;;;11.40;99.90;;;;;;5072887;28;20055;-66
2022/10/13 07:45:59;;;;;;;24.33;14.90;;;11.40;99.90;;;;;;5072820;28;20042;-67
2022/10/13 07:48:26;;;;;;;25.00;15.45;;;11.40;99.90;;;;;;5072625;28;20058;-67
2022/10/13 07:50:51;;;;;;;24.00;14.70;;;11.50;99.90;;;;;;5073354;28;20032;-66
2022/10/13 07:53:17;;;;;;;26.05;16.55;;;11.60;99.90;;;;;;5072596;28;20043;-67
2022/10/13 07:55:42;;;;;;;26.25;16.20;;;11.60;99.90;;;;;;5072996;28;20044;-66
2022/10/13 07:58:08;;;;;;;27.90;16.58;;;11.60;99.90;;;;;;5055757;28;20055;-67
2022/10/13 08:00:34;;;;;;;27.20;16.23;;;11.70;99.90;;;;;;5073200;28;20401;-66
2022/10/13 08:03:00;;;;;;;27.88;17.17;;;11.70;99.90;;;;;;5072558;28;20052;-66
2022/10/13 08:05:25;;;;;;;27.60;15.85;;;11.70;99.90;;;;;;5072427;28;20490;-65
2022/10/13 08:07:51;;;;;;;32.03;17.23;;;11.70;99.90;;;;;;5073428;28;20486;-67
2022/10/13 08:10:17;;;;;;;26.00;16.70;;;11.70;99.90;;;;;;5072233;28;20040;-67
2022/10/13 08:12:43;;;;;;;33.00;17.88;;;11.80;99.90;;;;;;5072932;28;20032;-66
2022/10/13 08:15:09;;;;;;;29.05;17.65;;;11.80;99.90;;;;;;5072353;28;20126;-66
2022/10/13 08:17:35;;;;;;;31.08;18.38;;;11.80;99.90;;;;;;5072469;28;20046;-65
2022/10/13 08:20:02;;;;;;;29.15;18.42;;;11.80;99.90;;;;;;5072469;28;20393;-66
2022/10/13 08:22:27;;;;;;;26.98;17.25;;;11.90;99.90;;;;;;5072364;28;20506;-66
2022/10/13 08:24:53;;;;;;;28.75;18.17;;;11.90;99.90;;;;;;5056082;28;20047;-66
2022/10/13 08:27:21;;;;;;;27.98;17.73;;;11.90;99.90;;;;;;5072132;28;20115;-66
2022/10/13 08:29:47;;;;;;;31.20;16.70;;;11.90;99.90;;;;;;5072463;28;20115;-65
2022/10/13 08:32:13;;;;;;;29.52;17.33;;;12.00;99.90;;;;;;5072141;28;20169;-66
2022/10/13 08:34:39;;;;;;;31.38;17.35;;;12.00;99.90;;;;;;5074215;28;20081;-66
2022/10/13 08:37:04;;;;;;;30.27;17.67;;;12.00;99.90;;;;;;5076307;28;20047;-66
2022/10/13 08:39:30;;;;;;;28.85;17.67;;;12.00;99.90;;;;;;5075985;28;20121;-66
2022/10/13 08:41:57;;;;;;;30.10;19.08;;;12.00;99.90;;;;;;5076371;28;20081;-67
2022/10/13 08:44:32;;;;;;;26.17;18.23;;;12.10;99.90;;;;;;5076075;28;20044;-66
2022/10/13 08:47:37;;;;;;;24.83;17.27;;;12.10;99.90;;;;;;5076132;28;20036;-67
2022/10/13 08:50:11;;;;;;;27.98;17.90;;;12.10;99.90;;;;;;5061991;28;20525;-65
2022/10/13 08:53:21;;;;;;;29.80;18.00;;;12.10;99.90;;;;;;5059022;28;20173;-65
2022/10/13 08:55:50;;;;;;;26.65;17.77;;;12.20;99.90;;;;;;5094176;28;20111;-66
2022/10/13 08:58:24;;;;;;;30.08;18.20;;;12.20;99.90;;;;;;5075848;28;20116;-66
2022/10/13 09:01:11;;;;;;;31.67;18.83;;;12.20;99.90;;;;;;5075948;28;20040;-66
2022/10/13 09:03:49;;;;;;;32.03;19.02;;;12.20;99.90;;;;;;5075477;28;20044;-67
2022/10/13 09:06:17;;;;;;;32.97;18.75;;;12.20;99.90;;;;;;5059161;28;20040;-67
2022/10/13 09:08:53;;;;;;;30.65;18.33;;;12.30;99.90;;;;;;5058895;28;20425;-66
2022/10/13 09:11:19;;;;;;;29.05;18.88;;;12.30;99.90;;;;;;5059042;28;20399;-67
2022/10/13 09:13:45;;;;;;;25.77;18.15;;;12.30;99.90;;;;;;5075444;28;20078;-67
2022/10/13 09:16:11;;;;;;;26.80;19.10;;;12.30;99.90;;;;;;5075607;28;20135;-66
2022/10/13 09:18:37;;;;;;;32.35;18.58;;;12.40;99.90;;;;;;5075270;28;20035;-65
2022/10/13 09:21:17;;;;;;;29.85;19.17;;;12.40;99.90;;;;;;5075490;28;20044;-67
2022/10/13 09:23:43;;;;;;;30.20;19.15;;;12.40;99.90;;;;;;5075532;28;21907;-65
2022/10/13 09:26:21;;;;;;;28.15;18.90;;;12.50;99.90;;;;;;5075833;28;20051;-67
2022/10/13 09:28:47;;;;;;;27.65;17.80;;;12.40;99.90;;;;;;5075467;28;20375;-66
2022/10/13 09:31:23;;;;;;;28.65;19.13;;;12.50;99.90;;;;;;5093498;28;20394;-66
2022/10/13 09:34:22;;;;;;;25.33;17.30;;;12.50;99.90;;;;;;5075034;28;20036;-66
2022/10/13 09:37:03;;;;;;;30.92;20.23;;;12.60;99.90;;;;;;5075398;28;20382;-66
2022/10/13 09:39:30;;;;;;;30.08;19.13;;;12.70;99.90;;;;;;5085461;28;20449;-66
2022/10/13 09:42:25;;;;;;;37.88;19.42;;;12.70;99.90;;;;;;5093395;28;20044;-66
2022/10/13 09:45:12;;;;;;;30.98;18.92;;;12.60;99.90;;;;;;5092836;28;20446;-66
2022/10/13 09:47:37;;;;;;;26.40;17.35;;;12.70;99.90;;;;;;5074310;28;20150;-65
2022/10/13 09:50:26;;;;;;;29.58;19.85;;;12.60;99.90;;;;;;5091905;28;20491;-65
2022/10/13 09:52:52;;;;;;;31.23;19.85;;;12.50;99.90;;;;;;5091700;28;20444;-66
2022/10/13 09:55:34;;;;;;;28.60;19.02;;;12.50;99.90;;;;;;5092190;28;20599;-67
2022/10/13 09:58:29;;;;;;;34.17;20.30;;;12.50;99.90;;;;;;5074990;28;20113;-66
2022/10/13 10:00:56;;;;;;;30.52;20.27;;;12.50;99.90;;;;;;5091374;28;20043;-67
2022/10/13 10:03:31;;;;;;;36.13;21.58;;;12.50;99.90;;;;;;5092914;28;20044;-66
2022/10/13 10:06:00;;;;;;;34.85;21.15;;;12.50;99.90;;;;;;5091757;28;20103;-67
2022/10/13 10:08:38;;;;;;;35.45;21.83;;;12.50;99.90;;;;;;5091548;28;20105;-66
2022/10/13 10:11:11;;;;;;;39.60;21.55;;;12.50;99.90;;;;;;5091760;28;20588;-68
2022/10/13 10:13:36;;;;;;;31.98;21.17;;;12.50;99.90;;;;;;5091240;28;20075;-67
2022/10/13 10:16:10;;;;;;;27.98;20.50;;;12.50;99.90;;;;;;5091601;28;20129;-65
2022/10/13 10:18:46;;;;;;;34.30;21.52;;;12.50;99.90;;;;;;5091382;28;20040;-66
2022/10/13 10:21:42;;;;;;;34.85;21.33;;;12.50;99.90;;;;;;5071090;28;20098;-66
2022/10/13 10:24:33;;;;;;;38.13;23.73;;;12.50;99.90;;;;;;5084012;28;20494;-68
2022/10/13 10:27:04;;;;;;;33.72;21.98;;;12.50;99.90;;;;;;5073443;28;20063;-67
2022/10/13 10:29:56;;;;;;;30.55;20.67;;;12.60;99.90;;;;;;5091231;28;20044;-65
2022/10/13 10:32:53;;;;;;;30.60;22.20;;;12.60;99.90;;;;;;5091310;28;20534;-67
2022/10/13 10:36:03;;;;;;;32.78;21.85;;;12.60;99.90;;;;;;5091077;28;20044;-66
2022/10/13 10:38:37;;;;;;;35.38;22.65;;;12.70;99.90;;;;;;5012978;28;20068;-67
2022/10/13 10:41:15;;;;;;;37.53;24.02;;;12.80;99.90;;;;;;5012931;28;20424;-66
2022/10/13 10:44:23;;;;;;;35.28;22.60;;;12.80;99.90;;;;;;5013018;28;20037;-66
2022/10/13 10:46:50;;;;;;;37.60;23.58;;;12.80;99.90;;;;;;4917115;29;20074;-65
2022/10/13 10:49:18;;;;;;;38.05;24.48;;;12.80;99.90;;;;;;4919813;29;20537;-67
2022/10/13 10:51:45;;;;;;;34.08;23.85;;;12.80;99.90;;;;;;4919685;29;20562;-66
2022/10/13 10:54:20;;;;;;;35.97;23.02;;;12.80;99.90;;;;;;4932184;29;20091;-66
2022/10/13 10:57:15;;;;;;;32.05;22.83;;;12.80;99.90;;;;;;4932140;29;20099;-67
2022/10/13 11:00:03;;;;;;;38.03;24.20;;;12.90;99.90;;;;;;4932275;29;20094;-68
2022/10/13 11:02:52;;;;;;;34.90;23.70;;;12.90;99.90;;;;;;4951354;29;20047;-66
2022/10/13 11:05:18;;;;;;;33.03;21.80;;;12.90;99.90;;;;;;4932077;29;20044;-67
2022/10/13 11:07:45;;;;;;;37.80;24.08;;;12.90;99.90;;;;;;4932274;29;20552;-66
2022/10/13 11:10:16;;;;;;;44.53;26.85;;;12.90;99.90;;;;;;4934743;29;20062;-68
2022/10/13 11:12:51;;;;;;;31.92;23.92;;;12.90;99.90;;;;;;4931919;29;20130;-66
2022/10/13 11:15:24;;;;;;;35.95;24.73;;;13.00;99.90;;;;;;5028415;28;20045;-67
2022/10/13 11:17:50;;;;;;;39.13;25.30;;;13.00;99.90;;;;;;5064556;28;20056;-68
2022/10/13 11:20:16;;;;;;;32.00;23.33;;;13.00;99.90;;;;;;5090423;28;20051;-66
2022/10/13 11:23:02;;;;;;;35.40;24.77;;;13.00;99.90;;;;;;5089947;28;20394;-67
2022/10/13 11:25:41;;;;;;;31.23;23.05;;;13.00;99.90;;;;;;5073106;28;20036;-67
2022/10/13 11:28:22;;;;;;;43.75;25.55;;;13.10;99.90;;;;;;5073122;28;20398;-66
2022/10/13 11:30:50;;;;;;;45.55;26.77;;;13.10;99.90;;;;;;5089897;28;20040;-65
2022/10/13 11:33:35;;;;;;;41.75;26.70;;;13.10;99.90;;;;;;5089664;28;20051;-66
2022/10/13 11:36:38;;;;;;;38.35;27.70;;;13.10;99.90;;;;;;5072832;28;20048;-66
2022/10/13 11:39:28;;;;;;;37.55;25.88;;;13.10;99.90;;;;;;5089561;28;20088;-66
2022/10/13 11:42:31;;;;;;;38.08;25.75;;;13.00;99.90;;;;;;5090005;28;20514;-66
2022/10/13 11:45:13;;;;;;;31.83;24.27;;;13.00;99.90;;;;;;5089532;28;20111;-66
2022/10/13 11:47:39;;;;;;;41.85;26.90;;;13.00;99.90;;;;;;5072919;28;20111;-68
2022/10/13 11:50:35;;;;;;;38.15;25.95;;;13.10;99.90;;;;;;5089588;28;20122;-68
2022/10/13 11:53:12;;;;;;;36.30;24.08;;;13.00;99.90;;;;;;5089420;28;20048;-66
2022/10/13 11:55:50;;;;;;;32.80;24.55;;;13.10;99.90;;;;;;5089744;28;20127;-66
2022/10/13 11:58:18;;;;;;;35.22;24.65;;;13.10;99.90;;;;;;5089601;28;20040;-67
2022/10/13 12:00:51;;;;;;;34.70;26.10;;;13.10;99.90;;;;;;5089617;28;20043;-67
2022/10/13 12:03:35;;;;;;;39.63;25.15;;;13.20;99.90;;;;;;5089423;28;20463;-66
2022/10/13 12:06:03;;;;;;;35.00;25.00;;;13.20;99.90;;;;;;5089285;28;20035;-66
2022/10/13 12:08:32;;;;;;;37.53;25.67;;;13.20;99.90;;;;;;5089016;28;20127;-67
2022/10/13 12:11:01;;;;;;;38.60;26.92;;;13.20;99.90;;;;;;5089346;28;20426;-66
2022/10/13 12:13:29;;;;;;;40.53;28.52;;;13.20;99.90;;;;;;5089334;28;20040;-66
2022/10/13 12:16:06;;;;;;;46.05;29.73;;;13.20;99.90;;;;;;5090679;28;20047;-66
2022/10/13 12:18:37;;;;;;;36.08;26.40;;;13.20;99.90;;;;;;5089309;28;20083;-66
2022/10/13 12:21:21;;;;;;;42.35;28.73;;;13.20;99.90;;;;;;5089378;28;20039;-67
2022/10/13 12:23:48;;;;;;;38.88;26.23;;;13.20;99.90;;;;;;5089246;28;20138;-66
2022/10/13 12:26:17;;;;;;;35.67;25.70;;;13.20;99.90;;;;;;5090365;28;20524;-67
2022/10/13 12:28:54;;;;;;;34.97;25.55;;;13.20;99.90;;;;;;5089335;28;20044;-67
2022/10/13 12:31:25;;;;;;;33.42;25.27;;;13.30;99.90;;;;;;5089042;28;20036;-66
2022/10/13 12:34:00;;;;;;;36.38;25.42;;;13.30;99.90;;;;;;5089297;28;20047;-67
2022/10/13 12:36:31;;;;;;;34.25;26.13;;;13.30;99.90;;;;;;5089008;28;20036;-66
2022/10/13 12:39:03;;;;;;;32.40;24.02;;;13.30;99.90;;;;;;5089257;28;20471;-66
2022/10/13 12:41:39;;;;;;;33.88;25.08;;;13.30;99.90;;;;;;5088896;28;20119;-66
2022/10/13 12:44:10;;;;;;;31.52;23.50;;;13.40;99.90;;;;;;5089172;28;20081;-66
2022/10/13 12:46:42;;;;;;;35.00;25.63;;;13.40;99.90;;;;;;5089506;28;20106;-66